createdAt,value
2023-04-25T00:00:21.517Z,10.30
2023-04-25T00:02:48.926Z,10.10
2023-04-25T00:05:17.345Z,10.00
2023-04-25T00:07:44.664Z,10.40
2023-04-25T00:10:12.757Z,10.40
2023-04-25T00:12:41.319Z,10.20
2023-04-25T00:15:08.757Z,10.20
2023-04-25T00:17:36.473Z,10.80
2023-04-25T00:20:06.050Z,11.10
2023-04-25T00:22:35.266Z,11.50
2023-04-25T00:25:02.654Z,11.90
2023-04-25T00:27:29.957Z,11.50
2023-04-25T00:29:57.120Z,11.10
2023-04-25T00:32:24.349Z,11.30
2023-04-25T00:34:51.540Z,10.90
2023-04-25T00:37:19.297Z,10.80
2023-04-25T00:39:46.496Z,11.10
2023-04-25T00:42:13.730Z,10.80
2023-04-25T00:44:41.350Z,10.50
2023-04-25T00:47:08.730Z,10.30
2023-04-25T00:49:35.941Z,10.40
2023-04-25T00:52:03.170Z,10.60
2023-04-25T00:54:31.668Z,11.00
2023-04-25T00:56:58.884Z,11.00
2023-04-25T00:59:28.200Z,11.00
2023-04-25T01:01:55.966Z,11.30
2023-04-25T01:04:23.616Z,10.90
2023-04-25T01:06:51.346Z,10.30
2023-04-25T01:09:18.512Z,10.20
2023-04-25T01:11:45.697Z,10.60
2023-04-25T01:14:12.885Z,10.90
2023-04-25T01:16:40.129Z,10.70
2023-04-25T01:19:13.845Z,11.10
2023-04-25T01:21:41.371Z,11.30
2023-04-25T01:24:08.904Z,11.00
2023-04-25T01:26:36.765Z,11.30
2023-04-25T01:29:05.796Z,11.60
2023-04-25T01:31:34.091Z,11.20
2023-04-25T01:34:01.714Z,10.70
2023-04-25T01:36:29.315Z,10.50
2023-04-25T01:38:56.529Z,10.90
2023-04-25T01:41:24.405Z,11.20
2023-04-25T01:43:52.065Z,11.50
2023-04-25T01:46:19.513Z,11.10
2023-04-25T01:48:47.114Z,10.80
2023-04-25T01:51:14.446Z,10.60
2023-04-25T01:53:41.920Z,10.90
2023-04-25T01:56:09.151Z,10.70
2023-04-25T01:58:36.324Z,11.30
2023-04-25T02:01:03.733Z,11.30
2023-04-25T02:03:32.560Z,11.40
2023-04-25T02:05:59.921Z,11.50
2023-04-25T02:08:27.865Z,11.40
2023-04-25T02:10:55.049Z,11.50
2023-04-25T02:13:22.218Z,11.40
2023-04-25T02:15:49.443Z,11.10
2023-04-25T02:18:19.553Z,11.10
2023-04-25T02:20:47.092Z,10.90
2023-04-25T02:23:16.279Z,10.70
2023-04-25T02:25:43.576Z,10.80
2023-04-25T02:28:11.285Z,10.50
2023-04-25T02:30:38.761Z,10.60
2023-04-25T02:33:06.122Z,10.70
2023-04-25T02:35:33.406Z,11.10
2023-04-25T02:38:00.613Z,11.00
2023-04-25T02:40:27.901Z,10.70
2023-04-25T02:42:55.063Z,10.70
2023-04-25T02:45:22.343Z,10.80
2023-04-25T02:47:49.550Z,10.60
2023-04-25T02:50:16.874Z,10.30
2023-04-25T02:52:44.089Z,10.20
2023-04-25T02:55:11.844Z,10.80
2023-04-25T02:57:39.027Z,10.70
2023-04-25T03:00:06.953Z,10.50
2023-04-25T03:02:34.150Z,10.90
2023-04-25T03:05:01.350Z,10.20
2023-04-25T03:07:28.532Z,10.60
2023-04-25T03:09:56.584Z,10.50
2023-04-25T03:12:23.767Z,10.70
2023-04-25T03:14:51.039Z,11.00
2023-04-25T03:17:18.264Z,11.00
2023-04-25T03:19:45.430Z,10.90
2023-04-25T03:22:12.657Z,10.70
2023-04-25T03:24:39.941Z,10.90
2023-04-25T03:27:07.134Z,11.20
2023-04-25T03:29:34.312Z,11.40
2023-04-25T03:32:01.664Z,10.70
2023-04-25T03:34:29.004Z,11.10
2023-04-25T03:36:56.378Z,11.00
2023-04-25T03:39:23.554Z,11.20
2023-04-25T03:41:50.851Z,11.40
2023-04-25T03:44:18.036Z,11.30
2023-04-25T03:46:45.266Z,11.60
2023-04-25T03:49:12.454Z,11.70
2023-04-25T03:51:39.658Z,11.50
2023-04-25T03:54:06.913Z,11.50
2023-04-25T03:56:34.071Z,11.50
2023-04-25T03:59:01.410Z,11.60
2023-04-25T04:01:28.639Z,11.40
2023-04-25T04:03:56.286Z,11.40
2023-04-25T04:06:23.902Z,11.20
2023-04-25T04:08:51.123Z,11.10
2023-04-25T04:11:18.326Z,11.40
2023-04-25T04:13:45.530Z,11.30
2023-04-25T04:16:12.772Z,11.50
2023-04-25T04:18:40.081Z,11.60
2023-04-25T04:21:07.262Z,11.60
2023-04-25T04:23:34.658Z,11.60
2023-04-25T04:26:02.096Z,11.60
2023-04-25T04:28:29.310Z,11.60
2023-04-25T04:30:56.597Z,11.70
2023-04-25T04:33:24.640Z,11.80
2023-04-25T04:35:53.287Z,12.00
2023-04-25T04:38:20.757Z,11.90
2023-04-25T04:40:48.686Z,11.90
2023-04-25T04:43:18.050Z,11.90
2023-04-25T04:45:45.627Z,11.60
2023-04-25T04:48:15.058Z,11.90
2023-04-25T04:50:45.904Z,12.00
2023-04-25T04:53:13.533Z,12.00
2023-04-25T04:55:42.142Z,12.10
2023-04-25T04:58:09.701Z,11.10
2023-04-25T05:00:36.925Z,10.90
2023-04-25T05:03:04.534Z,11.10
2023-04-25T05:05:31.906Z,11.30
2023-04-25T05:07:59.133Z,11.40
2023-04-25T05:10:26.495Z,11.60
2023-04-25T05:12:53.760Z,11.10
2023-04-25T05:15:20.962Z,10.80
2023-04-25T05:17:48.217Z,11.20
2023-04-25T05:20:16.158Z,10.70
2023-04-25T05:22:43.584Z,10.60
2023-04-25T05:25:11.229Z,10.60
2023-04-25T05:27:38.489Z,10.70
2023-04-25T05:30:06.629Z,10.80
2023-04-25T05:32:33.865Z,10.40
2023-04-25T05:35:01.615Z,10.50
2023-04-25T05:37:28.963Z,10.50
2023-04-25T05:39:56.164Z,9.60
2023-04-25T05:42:23.534Z,9.80
2023-04-25T05:44:50.730Z,9.50
2023-04-25T05:47:17.969Z,9.70
2023-04-25T05:49:45.151Z,9.20
2023-04-25T05:52:12.302Z,9.80
2023-04-25T05:54:39.481Z,9.20
2023-04-25T05:57:07.109Z,9.30
2023-04-25T05:59:34.369Z,8.90
2023-04-25T06:02:01.849Z,8.90
2023-04-25T06:04:29.404Z,8.40
2023-04-25T06:06:56.884Z,8.70
2023-04-25T06:09:24.061Z,9.50
2023-04-25T06:11:51.245Z,9.20
2023-04-25T06:14:18.710Z,9.50
2023-04-25T06:16:45.890Z,9.90
2023-04-25T06:19:13.069Z,11.00
2023-04-25T06:21:40.246Z,10.70
2023-04-25T06:24:07.518Z,10.70
2023-04-25T06:26:34.826Z,10.20
2023-04-25T06:29:02.011Z,9.40
2023-04-25T06:31:30.114Z,9.20
2023-04-25T06:33:57.371Z,9.20
2023-04-25T06:36:26.095Z,9.70
2023-04-25T06:38:53.702Z,9.60
2023-04-25T06:41:21.294Z,8.90
2023-04-25T06:43:48.731Z,9.60
2023-04-25T06:46:16.001Z,9.70
2023-04-25T06:48:43.297Z,10.10
2023-04-25T06:51:10.565Z,9.60
2023-04-25T06:53:37.761Z,10.30
2023-04-25T06:56:05.471Z,10.20
2023-04-25T06:58:32.722Z,10.20
2023-04-25T07:01:00.037Z,10.10
2023-04-25T07:03:27.448Z,10.30
2023-04-25T07:05:54.669Z,9.90
2023-04-25T07:08:22.363Z,9.90
2023-04-25T07:10:50.094Z,9.60
2023-04-25T07:13:17.426Z,9.70
2023-04-25T07:15:45.621Z,10.00
2023-04-25T07:18:13.004Z,9.70
2023-04-25T07:20:40.507Z,10.20
2023-04-25T07:23:07.681Z,10.30
2023-04-25T07:25:34.876Z,10.50
2023-04-25T07:28:02.098Z,10.30
2023-04-25T07:30:29.261Z,10.30
2023-04-25T07:32:56.879Z,9.80
2023-04-25T07:35:24.329Z,10.00
2023-04-25T07:37:52.078Z,10.20
2023-04-25T07:40:19.355Z,10.20
2023-04-25T07:42:46.608Z,10.40
2023-04-25T07:45:13.831Z,10.30
2023-04-25T07:47:41.101Z,10.30
2023-04-25T07:50:08.861Z,10.50
2023-04-25T07:52:36.233Z,10.10
2023-04-25T07:55:04.190Z,10.40
2023-04-25T07:57:31.805Z,10.20
2023-04-25T07:59:59.063Z,10.60
2023-04-25T08:02:29.301Z,10.40
2023-04-25T08:04:56.805Z,10.40
2023-04-25T08:07:24.099Z,10.20
2023-04-25T08:09:51.279Z,10.60
2023-04-25T08:12:18.474Z,10.10
2023-04-25T08:14:45.701Z,9.60
2023-04-25T08:17:12.908Z,9.90
2023-04-25T08:19:40.359Z,10.00
2023-04-25T08:22:07.577Z,9.90
2023-04-25T08:24:35.693Z,10.10
2023-04-25T08:27:04.381Z,10.10
2023-04-25T08:29:31.769Z,10.50
2023-04-25T08:31:59.006Z,10.10
2023-04-25T08:34:26.855Z,9.90
2023-04-25T08:36:54.580Z,10.30
2023-04-25T08:39:21.948Z,10.50
2023-04-25T08:41:49.385Z,9.80
2023-04-25T08:44:16.638Z,9.70
2023-04-25T08:46:44.254Z,9.90
2023-04-25T08:49:13.901Z,9.70
2023-04-25T08:51:47.835Z,9.60
2023-04-25T08:54:30.735Z,9.50
2023-04-25T08:57:05.243Z,9.80
2023-04-25T08:59:33.353Z,9.70
2023-04-25T09:02:00.566Z,9.50
2023-04-25T09:04:27.788Z,9.10
2023-04-25T09:06:54.985Z,9.30
2023-04-25T09:09:22.394Z,9.70
2023-04-25T09:11:49.714Z,9.20
2023-04-25T09:14:18.562Z,9.30
2023-04-25T09:16:58.049Z,9.40
2023-04-25T09:19:38.690Z,9.10
2023-04-25T09:22:06.936Z,9.90
2023-04-25T09:24:34.892Z,10.10
2023-04-25T09:27:08.961Z,10.40
2023-04-25T09:29:39.196Z,10.40
2023-04-25T09:32:15.668Z,10.50
2023-04-25T09:35:04.078Z,10.60
2023-04-25T09:37:31.850Z,10.90
2023-04-25T09:40:03.558Z,10.90
2023-04-25T09:42:32.907Z,10.70
2023-04-25T09:45:02.810Z,11.10
2023-04-25T09:47:30.123Z,11.20
2023-04-25T09:49:57.369Z,10.90
2023-04-25T09:52:26.448Z,9.60
2023-04-25T09:54:54.040Z,10.00
2023-04-25T09:57:21.968Z,10.20
2023-04-25T09:59:50.947Z,10.60
2023-04-25T10:02:21.243Z,11.00
2023-04-25T10:04:55.611Z,11.20
2023-04-25T10:07:29.271Z,10.60
2023-04-25T10:10:17.046Z,11.20
2023-04-25T10:13:15.714Z,10.60
2023-04-25T10:16:18.526Z,11.30
2023-04-25T10:19:17.764Z,11.00
2023-04-25T10:22:23.027Z,11.00
2023-04-25T10:25:19.689Z,10.90
2023-04-25T10:28:19.396Z,11.10
2023-04-25T10:31:37.446Z,10.60
2023-04-25T10:34:04.740Z,10.80
2023-04-25T10:36:35.813Z,11.00
2023-04-25T10:39:12.977Z,11.30
2023-04-25T10:42:03.769Z,11.60
2023-04-25T10:45:02.429Z,11.70
2023-04-25T10:48:01.911Z,11.00
2023-04-25T10:55:01.805Z,12.00
2023-04-25T10:58:01.951Z,12.40
2023-04-25T11:01:02.278Z,11.50
2023-04-25T11:04:03.537Z,11.20
2023-04-25T11:07:06.592Z,11.70
2023-04-25T11:09:35.741Z,10.60
2023-04-25T11:12:03.076Z,10.80
2023-04-25T11:14:30.333Z,12.00
2023-04-25T11:17:00.382Z,12.20
2023-04-25T11:19:29.047Z,12.90
2023-04-25T11:22:01.036Z,13.30
2023-04-25T11:24:32.561Z,13.40
2023-04-25T11:27:00.778Z,13.50
2023-04-25T11:29:32.091Z,14.80
2023-04-25T11:32:00.929Z,14.20
2023-04-25T11:34:31.551Z,13.30
2023-04-25T11:36:59.487Z,13.80
2023-04-25T11:39:27.189Z,12.80
2023-04-25T11:41:54.945Z,13.30
2023-04-25T11:44:22.829Z,13.20
2023-04-25T11:46:50.700Z,13.10
2023-04-25T11:49:20.589Z,11.90
2023-04-25T11:51:49.397Z,12.50
2023-04-25T11:54:16.879Z,12.40
2023-04-25T11:56:47.623Z,12.20
2023-04-25T11:59:15.147Z,12.80
2023-04-25T12:01:48.797Z,13.70
2023-04-25T12:04:34.327Z,13.00
2023-04-25T12:07:03.288Z,13.30
2023-04-25T12:09:34.894Z,14.50
2023-04-25T12:12:03.979Z,14.60
2023-04-25T12:14:34.247Z,13.20
2023-04-25T12:17:03.472Z,12.30
2023-04-25T12:19:35.138Z,12.80
2023-04-25T12:22:04.379Z,11.70
2023-04-25T12:24:38.354Z,10.90
2023-04-25T12:27:09.089Z,10.20
2023-04-25T12:32:07.067Z,10.50
2023-04-25T12:34:36.637Z,10.00
2023-04-25T12:37:03.839Z,10.00
2023-04-25T12:39:31.152Z,10.30
2023-04-25T12:41:58.471Z,10.00
2023-04-25T12:44:25.950Z,10.50
2023-04-25T12:46:53.257Z,10.80
2023-04-25T12:49:20.537Z,10.90
2023-04-25T12:51:47.832Z,10.40
2023-04-25T12:54:15.399Z,10.20
2023-04-25T12:56:43.161Z,10.20
2023-04-25T12:59:10.512Z,10.30
2023-04-25T13:01:38.287Z,10.30
2023-04-25T13:04:06.014Z,10.40
2023-04-25T13:06:33.303Z,10.40
2023-04-25T13:09:00.552Z,10.60
2023-04-25T13:11:27.779Z,11.20
2023-04-25T13:13:55.067Z,11.30
2023-04-25T13:16:22.519Z,11.40
2023-04-25T13:18:49.973Z,10.90
2023-04-25T13:21:17.242Z,10.50
2023-04-25T13:23:45.712Z,10.50
2023-04-25T13:26:12.952Z,10.70
2023-04-25T13:28:42.910Z,11.10
2023-04-25T13:31:12.040Z,11.50
2023-04-25T13:33:39.292Z,11.70
2023-04-25T13:36:06.857Z,11.80
2023-04-25T13:38:34.086Z,12.30
2023-04-25T13:41:01.910Z,13.00
2023-04-25T13:43:29.240Z,13.60
2023-04-25T13:45:56.494Z,13.90
2023-04-25T13:48:24.910Z,14.40
2023-04-25T13:50:52.350Z,14.00
2023-04-25T13:53:19.628Z,13.80
2023-04-25T13:55:47.038Z,13.60
2023-04-25T13:58:14.258Z,13.80
2023-04-25T14:00:44.309Z,14.60
2023-04-25T14:03:11.821Z,15.10
2023-04-25T14:05:39.864Z,15.60
2023-04-25T14:08:10.919Z,14.40
2023-04-25T14:10:38.246Z,12.70
2023-04-25T14:13:06.700Z,12.50
2023-04-25T14:15:35.547Z,11.70
2023-04-25T14:18:03.067Z,11.40
2023-04-25T14:20:30.689Z,11.10
2023-04-25T14:22:59.303Z,11.20
2023-04-25T14:25:26.895Z,11.30
2023-04-25T14:27:54.331Z,11.40
2023-04-25T14:30:22.073Z,11.10
2023-04-25T14:32:52.432Z,11.10
2023-04-25T14:35:20.106Z,11.40
2023-04-25T14:37:47.385Z,11.30
2023-04-25T14:40:16.360Z,12.00
2023-04-25T14:42:43.686Z,11.80
2023-04-25T14:45:11.302Z,11.50
2023-04-25T14:47:38.862Z,11.70
2023-04-25T14:50:07.359Z,11.50
2023-04-25T14:52:34.570Z,11.80
2023-04-25T14:55:05.788Z,11.60
2023-04-25T14:57:33.436Z,11.90
2023-04-25T15:00:00.815Z,12.10
2023-04-25T15:02:28.660Z,11.60
2023-04-25T15:04:57.004Z,12.00
2023-04-25T15:07:24.831Z,12.50
2023-04-25T15:09:54.220Z,13.00
2023-04-25T15:12:21.498Z,12.60
2023-04-25T15:14:48.693Z,12.80
2023-04-25T15:17:16.103Z,12.80
2023-04-25T15:19:43.309Z,12.90
2023-04-25T15:22:10.537Z,12.90
2023-04-25T15:24:37.731Z,13.00
2023-04-25T15:27:05.503Z,12.80
2023-04-25T15:29:32.705Z,12.20
2023-04-25T15:32:00.027Z,12.90
2023-04-25T15:34:27.361Z,13.60
2023-04-25T15:36:54.565Z,13.80
2023-04-25T15:39:21.845Z,14.70
2023-04-25T15:41:49.038Z,14.70
2023-04-25T15:44:16.375Z,14.80
2023-04-25T15:46:45.730Z,14.10
2023-04-25T15:49:13.137Z,13.80
2023-04-25T15:51:40.550Z,14.10
2023-04-25T15:54:08.164Z,13.80
2023-04-25T15:56:35.391Z,13.40
2023-04-25T15:59:02.674Z,13.30
2023-04-25T16:01:31.117Z,13.10
2023-04-25T16:03:59.214Z,13.00
2023-04-25T16:06:27.401Z,13.10
2023-04-25T16:08:55.119Z,13.20
2023-04-25T16:11:22.704Z,13.20
2023-04-25T16:13:50.398Z,12.90
2023-04-25T16:16:17.930Z,13.50
2023-04-25T16:18:45.283Z,13.60
2023-04-25T16:21:17.033Z,13.20
2023-04-25T16:23:44.530Z,12.80
2023-04-25T16:26:11.753Z,13.10
2023-04-25T16:28:38.967Z,13.10
2023-04-25T16:31:07.041Z,13.10
2023-04-25T16:33:35.366Z,12.60
2023-04-25T16:36:02.555Z,12.60
2023-04-25T16:38:29.843Z,12.80
2023-04-25T16:40:57.078Z,12.90
2023-04-25T16:43:24.352Z,12.60
2023-04-25T16:45:51.585Z,12.40
2023-04-25T16:48:20.850Z,12.20
2023-04-25T16:50:48.066Z,12.30
2023-04-25T16:53:15.389Z,11.80
2023-04-25T16:55:42.599Z,11.40
2023-04-25T16:58:11.940Z,11.30
2023-04-25T17:00:39.954Z,11.30
2023-04-25T17:03:07.776Z,11.20
2023-04-25T17:05:36.372Z,11.30
2023-04-25T17:08:03.741Z,11.40
2023-04-25T17:10:31.117Z,11.20
2023-04-25T17:12:58.305Z,10.50
2023-04-25T17:15:25.553Z,10.40
2023-04-25T17:17:52.961Z,10.20
2023-04-25T17:20:20.374Z,10.20
2023-04-25T17:22:47.635Z,10.20
2023-04-25T17:25:14.912Z,10.50
2023-04-25T17:27:42.085Z,10.40
2023-04-25T17:30:09.865Z,10.60
2023-04-25T17:32:37.236Z,10.40
2023-04-25T17:35:05.416Z,10.30
2023-04-25T17:37:32.823Z,10.50
2023-04-25T17:39:59.986Z,10.30
2023-04-25T17:42:28.040Z,10.60
2023-04-25T17:44:55.618Z,10.90
2023-04-25T17:47:23.860Z,10.50
2023-04-25T17:49:51.425Z,10.60
2023-04-25T17:52:18.650Z,10.70
2023-04-25T17:54:46.630Z,10.90
2023-04-25T17:57:15.202Z,11.30
2023-04-25T17:59:42.547Z,11.30
2023-04-25T18:02:10.845Z,11.60
2023-04-25T18:04:38.412Z,11.50
2023-04-25T18:07:05.923Z,11.40
2023-04-25T18:09:34.240Z,10.90
2023-04-25T18:12:02.071Z,10.90
2023-04-25T18:14:29.275Z,10.90
2023-04-25T18:16:56.460Z,10.90
2023-04-25T18:19:23.956Z,10.90
2023-04-25T18:21:54.444Z,11.50
2023-04-25T18:24:22.898Z,11.00
2023-04-25T18:26:50.389Z,11.20
2023-04-25T18:29:31.408Z,11.60
2023-04-25T18:32:00.192Z,12.40
2023-04-25T18:34:27.770Z,12.00
2023-04-25T18:36:56.443Z,12.20
2023-04-25T18:39:24.464Z,11.70
2023-04-25T18:41:58.788Z,11.80
2023-04-25T18:44:27.983Z,12.00
2023-04-25T18:46:55.274Z,11.80
2023-04-25T18:49:22.536Z,12.20
2023-04-25T18:51:49.829Z,12.20
2023-04-25T18:54:17.015Z,12.10
2023-04-25T18:56:44.226Z,11.90
2023-04-25T18:59:12.011Z,12.00
2023-04-25T19:01:39.238Z,11.90
2023-04-25T19:04:07.003Z,12.00
2023-04-25T19:06:34.480Z,12.00
2023-04-25T19:09:02.380Z,12.00
2023-04-25T19:11:29.833Z,12.00
2023-04-25T19:13:57.112Z,11.80
2023-04-25T19:16:26.296Z,11.70
2023-04-25T19:18:56.014Z,11.80
2023-04-25T19:21:23.633Z,11.60
2023-04-25T19:23:54.246Z,11.50
2023-04-25T19:26:22.368Z,11.00
2023-04-25T19:29:10.578Z,10.70
2023-04-25T19:31:38.917Z,11.00
2023-04-25T19:34:07.527Z,10.40
2023-04-25T19:36:38.969Z,10.90
2023-04-25T19:39:07.422Z,11.00
2023-04-25T19:41:39.017Z,10.90
2023-04-25T19:44:08.330Z,10.60
2023-04-25T19:46:36.762Z,10.40
2023-04-25T19:49:07.212Z,11.00
2023-04-25T19:51:35.750Z,10.60
2023-04-25T19:54:03.467Z,10.60
2023-04-25T19:56:31.060Z,10.80
2023-04-25T19:58:58.406Z,10.80
2023-04-25T20:01:26.285Z,11.20
2023-04-25T20:03:53.874Z,11.60
2023-04-25T20:06:21.611Z,11.90
2023-04-25T20:08:50.506Z,11.90
2023-04-25T20:11:17.747Z,12.00
2023-04-25T20:13:45.072Z,11.50
2023-04-25T20:16:12.426Z,11.30
2023-04-25T20:18:41.501Z,11.40
2023-04-25T20:21:08.790Z,11.20
2023-04-25T20:23:36.002Z,11.30
2023-04-25T20:26:04.757Z,11.50
2023-04-25T20:28:32.374Z,11.60
2023-04-25T20:31:00.444Z,11.70
2023-04-25T20:33:27.923Z,11.90
2023-04-25T20:35:55.123Z,11.90
2023-04-25T20:38:22.396Z,11.70
2023-04-25T20:40:50.874Z,11.60
2023-04-25T20:43:18.067Z,11.10
2023-04-25T20:45:45.328Z,10.90
2023-04-25T20:48:12.533Z,11.00
2023-04-25T20:50:39.740Z,11.10
2023-04-25T20:53:07.026Z,11.30
2023-04-25T20:55:34.208Z,11.50
2023-04-25T20:58:01.405Z,11.40
2023-04-25T21:00:29.312Z,11.20
2023-04-25T21:02:57.674Z,11.20
2023-04-25T21:05:25.098Z,11.20
2023-04-25T21:07:52.479Z,11.10
2023-04-25T21:10:20.200Z,10.90
2023-04-25T21:12:49.321Z,10.80
2023-04-25T21:15:19.374Z,10.90
2023-04-25T21:17:47.628Z,10.90
2023-04-25T21:20:17.787Z,10.80
2023-04-25T21:22:50.444Z,10.60
2023-04-25T21:25:20.829Z,10.60
2023-04-25T21:27:49.602Z,10.80
2023-04-25T21:30:19.080Z,10.90
2023-04-25T21:32:47.839Z,11.00
2023-04-25T21:35:15.633Z,11.20
2023-04-25T21:37:42.992Z,11.50
2023-04-25T21:40:10.798Z,11.40
2023-04-25T21:42:38.254Z,11.00
2023-04-25T21:45:09.990Z,11.00
2023-04-25T21:47:37.261Z,11.00
2023-04-25T21:50:04.779Z,11.40
2023-04-25T21:52:32.043Z,11.40
2023-04-25T21:54:59.227Z,11.50
2023-04-25T21:57:26.436Z,11.30
2023-04-25T21:59:53.628Z,11.40
2023-04-25T22:02:20.998Z,11.10
2023-04-25T22:04:48.751Z,10.90
2023-04-25T22:07:16.126Z,10.80
2023-04-25T22:09:53.897Z,10.80
2023-04-25T22:12:23.382Z,10.90
2023-04-25T22:14:51.107Z,11.00
2023-04-25T22:17:19.304Z,10.30
2023-04-25T22:19:47.060Z,10.20
2023-04-25T22:22:14.307Z,10.40
2023-04-25T22:24:42.119Z,10.70
2023-04-25T22:27:12.767Z,10.60
2023-04-25T22:29:40.307Z,10.50
2023-04-25T22:32:07.611Z,10.30
2023-04-25T22:34:34.805Z,10.40
2023-04-25T22:37:02.062Z,10.40
2023-04-25T22:39:29.629Z,10.80
2023-04-25T22:41:57.057Z,11.00
2023-04-25T22:44:24.300Z,11.60
2023-04-25T22:46:51.494Z,12.10
2023-04-25T22:49:18.889Z,12.00
2023-04-25T22:51:46.086Z,11.40
2023-04-25T22:54:13.267Z,11.30
2023-04-25T22:56:40.466Z,10.90
2023-04-25T22:59:11.444Z,11.00
2023-04-25T23:01:38.659Z,10.90
2023-04-25T23:04:07.797Z,10.70
2023-04-25T23:06:35.494Z,10.60
2023-04-25T23:09:02.675Z,10.60
2023-04-25T23:11:30.204Z,10.60
2023-04-25T23:13:58.731Z,10.70
2023-04-25T23:16:26.429Z,10.60
2023-04-25T23:18:53.809Z,10.70
2023-04-25T23:21:21.612Z,11.20
2023-04-25T23:23:48.868Z,11.40
2023-04-25T23:26:16.035Z,11.10
2023-04-25T23:28:43.240Z,11.00
2023-04-25T23:31:12.088Z,10.90
2023-04-25T23:33:39.512Z,11.10
2023-04-25T23:36:07.597Z,11.00
2023-04-25T23:38:34.779Z,11.20
2023-04-25T23:41:02.158Z,11.00
2023-04-25T23:43:29.316Z,11.10
2023-04-25T23:45:56.591Z,10.80
2023-04-25T23:48:23.859Z,11.00
2023-04-25T23:50:51.739Z,12.00
2023-04-25T23:53:19.025Z,11.80
2023-04-25T23:55:46.307Z,11.90
2023-04-25T23:58:13.551Z,11.70
